Time;durP1;ratioP1;P1;durP2;ratioP2;P2;SDS_P1;SDS_P2;PMS_P1;PMS_P2;Temp;Humidity;BMP_temperature;BMP_pressure;BME280_temperature;BME280_humidity;BME280_pressure;Samples;Min_cycle;Max_cycle;Signal;HPM_P1;HPM_P2
2023/03/23 00:01:10;;;;;;;14.33;11.63;;;10.40;99.90;;;;;;4916324;29;20255;-56
2023/03/23 00:03:37;;;;;;;16.90;13.20;;;10.30;99.90;;;;;;4915552;29;20229;-56
2023/03/23 00:06:06;;;;;;;17.17;14.00;;;10.40;99.90;;;;;;4919744;29;20240;-56
2023/03/23 00:08:37;;;;;;;15.07;13.03;;;10.40;99.90;;;;;;4885343;29;20323;-56
2023/03/23 00:11:04;;;;;;;15.23;13.50;;;10.30;99.90;;;;;;4881800;29;20235;-56
2023/03/23 00:13:32;;;;;;;16.87;14.07;;;10.40;99.90;;;;;;4881584;29;20227;-56
2023/03/23 00:16:01;;;;;;;16.07;13.73;;;10.40;99.90;;;;;;4881712;29;20244;-57
2023/03/23 00:18:28;;;;;;;20.27;15.17;;;10.40;99.90;;;;;;4895326;29;20231;-56
2023/03/23 00:20:58;;;;;;;16.37;14.70;;;10.40;99.90;;;;;;4911571;29;20226;-55
2023/03/23 00:23:26;;;;;;;17.43;15.57;;;10.40;99.90;;;;;;4919366;29;20227;-56
2023/03/23 00:25:56;;;;;;;19.07;16.80;;;10.40;99.90;;;;;;4919125;29;20329;-56
2023/03/23 00:28:26;;;;;;;18.23;16.33;;;10.40;99.90;;;;;;4915986;29;20252;-56
2023/03/23 00:30:57;;;;;;;20.10;16.87;;;10.40;99.90;;;;;;4898531;29;20306;-56
2023/03/23 00:33:29;;;;;;;18.27;16.07;;;10.40;99.90;;;;;;4913758;29;20311;-56
2023/03/23 00:35:57;;;;;;;18.33;16.37;;;10.40;99.90;;;;;;4918901;29;20230;-56
2023/03/23 00:38:25;;;;;;;18.13;16.17;;;10.40;99.90;;;;;;4919021;29;20235;-56
2023/03/23 00:40:57;;;;;;;19.03;17.13;;;10.50;99.90;;;;;;4886584;29;20316;-57
2023/03/23 00:43:28;;;;;;;18.17;16.27;;;10.50;99.90;;;;;;4918824;29;20699;-56
2023/03/23 00:45:56;;;;;;;18.03;16.23;;;10.40;99.90;;;;;;4919056;29;20234;-56
2023/03/23 00:48:25;;;;;;;19.17;17.27;;;10.50;99.90;;;;;;4901007;29;20244;-56
2023/03/23 00:50:53;;;;;;;18.43;16.63;;;10.50;99.90;;;;;;4910734;29;20223;-56
2023/03/23 00:53:21;;;;;;;18.63;16.70;;;10.50;99.90;;;;;;4916729;29;20219;-56
2023/03/23 00:55:50;;;;;;;18.43;16.53;;;10.50;99.90;;;;;;4899130;29;20329;-56
2023/03/23 00:58:17;;;;;;;18.43;16.63;;;10.50;99.90;;;;;;4881051;29;20239;-56
2023/03/23 01:00:44;;;;;;;18.90;17.00;;;10.50;99.90;;;;;;4880319;29;20243;-55
2023/03/23 01:03:17;;;;;;;18.00;16.17;;;10.50;99.90;;;;;;4892532;29;20636;-57
2023/03/23 01:05:47;;;;;;;19.03;17.10;;;10.60;99.90;;;;;;4918080;29;20302;-55
2023/03/23 01:08:16;;;;;;;18.60;16.70;;;10.50;99.90;;;;;;4918431;29;20232;-56
2023/03/23 01:10:43;;;;;;;19.33;16.70;;;10.50;99.90;;;;;;4918269;29;20227;-57
2023/03/23 01:13:12;;;;;;;18.27;16.37;;;10.50;99.90;;;;;;4901318;29;20774;-56
2023/03/23 01:15:39;;;;;;;19.87;17.87;;;10.50;99.90;;;;;;4915026;29;20664;-56
2023/03/23 01:18:06;;;;;;;19.37;17.37;;;10.50;99.90;;;;;;4917427;29;20230;-56
2023/03/23 01:20:33;;;;;;;18.77;16.87;;;10.50;99.90;;;;;;4893191;29;20234;-56
2023/03/23 01:23:02;;;;;;;18.90;17.03;;;10.50;99.90;;;;;;4918386;29;20227;-57
2023/03/23 01:25:31;;;;;;;18.50;16.70;;;10.50;99.90;;;;;;4885717;29;20230;-56
2023/03/23 01:27:59;;;;;;;19.90;17.90;;;10.50;99.90;;;;;;4898823;29;20257;-56
2023/03/23 01:30:26;;;;;;;19.20;17.20;;;10.50;99.90;;;;;;4881607;29;20704;-55
2023/03/23 01:32:55;;;;;;;19.97;17.87;;;10.50;99.90;;;;;;4908629;29;20714;-56
2023/03/23 01:35:22;;;;;;;19.27;17.33;;;10.50;99.90;;;;;;4900779;29;20231;-56
2023/03/23 01:37:50;;;;;;;18.60;16.67;;;10.50;99.90;;;;;;4900784;29;20254;-56
2023/03/23 01:40:18;;;;;;;19.80;17.60;;;10.50;99.90;;;;;;4917859;29;20221;-56
2023/03/23 01:42:45;;;;;;;19.80;17.70;;;10.50;99.90;;;;;;4900586;29;20304;-56
2023/03/23 01:45:26;;;;;;;20.07;17.90;;;10.50;99.90;;;;;;4900778;29;20247;-56
2023/03/23 01:48:07;;;;;;;20.30;18.27;;;10.50;99.90;;;;;;4899920;29;20653;-56
2023/03/23 01:50:40;;;;;;;22.13;19.70;;;10.50;99.90;;;;;;4909581;29;20226;-56
2023/03/23 01:53:10;;;;;;;20.43;18.53;;;10.50;99.90;;;;;;4886328;29;20228;-56
2023/03/23 01:55:41;;;;;;;20.30;18.20;;;10.50;99.90;;;;;;4897124;29;20264;-55
2023/03/23 01:58:10;;;;;;;21.80;18.70;;;10.50;99.90;;;;;;4897371;29;20331;-57
2023/03/23 02:00:40;;;;;;;20.37;18.37;;;10.60;99.90;;;;;;4881408;29;20244;-57
2023/03/23 02:03:10;;;;;;;22.87;20.37;;;10.60;99.90;;;;;;4892863;29;20233;-55
2023/03/23 02:05:40;;;;;;;21.73;19.43;;;10.60;99.90;;;;;;4893472;29;20232;-56
2023/03/23 02:08:29;;;;;;;21.93;19.73;;;10.60;99.90;;;;;;4899791;29;20296;-56
2023/03/23 02:10:57;;;;;;;21.97;19.73;;;10.60;99.90;;;;;;4900245;29;20252;-56
2023/03/23 02:13:25;;;;;;;21.77;19.63;;;10.50;99.90;;;;;;4900220;29;20652;-56
2023/03/23 02:16:04;;;;;;;19.90;17.83;;;10.60;99.90;;;;;;4900500;29;20576;-56
2023/03/23 02:18:40;;;;;;;21.07;18.80;;;10.60;99.90;;;;;;4916462;29;20227;-57
2023/03/23 02:21:32;;;;;;;21.93;19.60;;;10.60;99.90;;;;;;4902750;29;20237;-57
2023/03/23 02:24:42;;;;;;;23.00;19.17;;;10.60;99.90;;;;;;4900030;29;20325;-56
2023/03/23 02:27:16;;;;;;;20.73;18.73;;;10.60;99.90;;;;;;4891137;29;20233;-56
2023/03/23 02:29:51;;;;;;;21.10;18.90;;;10.60;99.90;;;;;;4899918;29;20233;-57
2023/03/23 02:32:39;;;;;;;20.23;18.23;;;10.60;99.90;;;;;;4908329;29;20316;-56
2023/03/23 02:35:11;;;;;;;22.47;20.17;;;10.60;99.90;;;;;;4902080;29;20236;-56
2023/03/23 02:37:44;;;;;;;21.10;18.77;;;10.60;99.90;;;;;;4899695;29;20237;-57
2023/03/23 02:40:16;;;;;;;21.83;19.63;;;10.60;99.90;;;;;;4899892;29;20229;-56
2023/03/23 02:42:47;;;;;;;22.67;20.47;;;10.60;99.90;;;;;;4916611;29;20230;-56
2023/03/23 02:45:17;;;;;;;22.23;19.93;;;10.60;99.90;;;;;;4899891;29;20234;-56
2023/03/23 02:47:47;;;;;;;21.07;18.87;;;10.60;99.90;;;;;;4893293;29;20239;-55
2023/03/23 02:50:18;;;;;;;21.50;19.20;;;10.60;99.90;;;;;;4891871;29;20221;-57
2023/03/23 02:52:47;;;;;;;21.70;19.50;;;10.60;99.90;;;;;;4916442;29;20694;-55
2023/03/23 02:55:15;;;;;;;21.73;19.47;;;10.70;99.90;;;;;;4916568;29;20597;-57
2023/03/23 02:57:43;;;;;;;20.93;18.73;;;10.60;99.90;;;;;;4916423;29;20226;-56
2023/03/23 03:00:16;;;;;;;21.43;19.33;;;10.60;99.90;;;;;;4899156;29;20238;-56
2023/03/23 03:02:45;;;;;;;21.67;19.23;;;10.60;99.90;;;;;;4909210;29;20226;-57
2023/03/23 03:05:22;;;;;;;20.40;18.30;;;10.60;99.90;;;;;;4915587;29;20249;-56
2023/03/23 03:07:59;;;;;;;20.70;18.33;;;10.60;99.90;;;;;;4913585;29;20222;-56
2023/03/23 03:10:31;;;;;;;20.63;18.50;;;10.60;99.90;;;;;;4899313;29;20714;-57
2023/03/23 03:13:06;;;;;;;20.83;18.67;;;10.70;99.90;;;;;;4899443;29;20230;-55
2023/03/23 03:15:37;;;;;;;21.47;19.47;;;10.70;99.90;;;;;;4884830;29;20253;-56
2023/03/23 03:18:12;;;;;;;20.90;18.80;;;10.60;99.90;;;;;;4869583;29;20744;-56
2023/03/23 03:20:45;;;;;;;21.20;19.07;;;10.60;99.90;;;;;;4891674;29;20590;-57
2023/03/23 03:23:16;;;;;;;21.87;19.67;;;10.60;99.90;;;;;;4899334;29;20245;-56
2023/03/23 03:25:48;;;;;;;21.03;18.90;;;10.70;99.90;;;;;;4899432;29;20229;-55
2023/03/23 03:28:22;;;;;;;22.03;19.03;;;10.70;99.90;;;;;;4888488;29;20734;-57
2023/03/23 03:30:55;;;;;;;21.00;18.83;;;10.70;99.90;;;;;;4885238;29;20716;-57
2023/03/23 03:33:25;;;;;;;21.17;18.83;;;10.70;99.90;;;;;;4894384;29;20314;-56
2023/03/23 03:35:57;;;;;;;21.27;18.97;;;10.70;99.90;;;;;;4898882;29;20267;-56
2023/03/23 03:38:24;;;;;;;21.40;19.33;;;10.70;99.90;;;;;;4868849;29;20667;-57
2023/03/23 03:40:53;;;;;;;20.13;18.10;;;10.70;99.90;;;;;;4884259;29;20721;-57
2023/03/23 03:43:20;;;;;;;20.77;18.70;;;10.70;99.90;;;;;;4900540;29;20246;-56
2023/03/23 03:45:48;;;;;;;18.93;17.13;;;10.80;99.90;;;;;;4883697;29;20226;-56
2023/03/23 03:48:15;;;;;;;20.10;17.90;;;10.70;99.90;;;;;;4888850;29;20764;-56
2023/03/23 03:50:42;;;;;;;18.27;16.40;;;10.80;99.90;;;;;;4894816;29;20698;-57
2023/03/23 03:53:10;;;;;;;20.50;18.40;;;10.80;99.90;;;;;;4899994;29;20722;-57
2023/03/23 03:55:38;;;;;;;20.17;18.13;;;10.80;99.90;;;;;;4899722;29;20234;-57
2023/03/23 03:58:10;;;;;;;19.60;17.80;;;10.80;99.90;;;;;;4899548;29;20231;-56
2023/03/23 04:01:13;;;;;;;20.17;18.27;;;10.80;99.90;;;;;;4891870;29;20234;-56
2023/03/23 04:03:41;;;;;;;19.57;17.57;;;10.80;99.90;;;;;;4908821;29;20231;-56
2023/03/23 04:06:16;;;;;;;19.80;17.13;;;10.70;99.90;;;;;;4902547;29;20236;-57
2023/03/23 04:08:45;;;;;;;19.43;17.37;;;10.70;99.90;;;;;;4902427;29;20235;-56
2023/03/23 04:11:15;;;;;;;19.67;17.63;;;10.70;99.90;;;;;;4919496;29;20314;-56
2023/03/23 04:13:43;;;;;;;19.10;17.20;;;10.70;99.90;;;;;;4895873;29;20242;-56
2023/03/23 04:16:21;;;;;;;20.03;18.00;;;10.70;99.90;;;;;;4899211;29;20230;-57
2023/03/23 04:18:49;;;;;;;20.07;17.37;;;10.70;99.90;;;;;;4890999;29;20221;-56
2023/03/23 04:21:18;;;;;;;18.33;16.47;;;10.70;99.90;;;;;;4896471;29;20230;-56
2023/03/23 04:23:49;;;;;;;21.20;17.53;;;10.70;99.90;;;;;;4895018;29;20231;-56
2023/03/23 04:26:16;;;;;;;20.50;18.40;;;10.70;99.90;;;;;;4883520;29;20235;-57
2023/03/23 04:28:50;;;;;;;19.30;17.40;;;10.70;99.90;;;;;;4898830;29;20231;-56
2023/03/23 04:31:35;;;;;;;20.07;18.07;;;10.70;99.90;;;;;;4899696;29;20243;-56
2023/03/23 04:34:23;;;;;;;19.00;17.10;;;10.70;99.90;;;;;;4900164;29;20226;-57
2023/03/23 04:36:52;;;;;;;18.87;16.87;;;10.70;99.90;;;;;;4901764;29;20268;-56
2023/03/23 04:39:28;;;;;;;19.03;17.07;;;10.70;99.90;;;;;;4891979;29;20257;-56
2023/03/23 04:42:00;;;;;;;20.20;16.97;;;10.70;99.90;;;;;;4883183;29;20695;-56
2023/03/23 04:44:53;;;;;;;20.43;17.53;;;10.60;99.90;;;;;;4871544;29;20243;-57
2023/03/23 04:47:22;;;;;;;19.87;17.87;;;10.60;99.90;;;;;;4880043;29;20711;-56
2023/03/23 04:49:55;;;;;;;19.30;17.53;;;10.60;99.90;;;;;;4908198;29;20248;-56
2023/03/23 04:52:28;;;;;;;20.37;17.33;;;10.50;99.90;;;;;;4901603;29;20233;-56
2023/03/23 04:55:02;;;;;;;19.83;17.73;;;10.50;99.90;;;;;;4885668;29;20265;-56
2023/03/23 04:57:31;;;;;;;21.30;18.77;;;10.50;99.90;;;;;;4882719;29;20282;-56
2023/03/23 05:00:17;;;;;;;18.90;17.00;;;10.60;99.90;;;;;;4901737;29;20255;-56
2023/03/23 05:02:51;;;;;;;20.97;18.73;;;10.50;99.90;;;;;;4891794;29;20233;-56
2023/03/23 05:05:21;;;;;;;19.93;17.83;;;10.50;99.90;;;;;;4893420;29;20341;-56
2023/03/23 05:07:50;;;;;;;20.67;17.10;;;10.50;99.90;;;;;;4898260;29;20231;-56
2023/03/23 05:10:22;;;;;;;20.80;17.73;;;10.50;99.90;;;;;;4898258;29;20716;-57
2023/03/23 05:12:51;;;;;;;18.60;16.80;;;10.50;99.90;;;;;;4898323;29;20230;-56
2023/03/23 05:15:19;;;;;;;20.33;17.03;;;10.60;99.90;;;;;;4880481;29;20234;-56
2023/03/23 05:17:48;;;;;;;18.43;16.50;;;10.60;99.90;;;;;;4895917;29;20246;-56
2023/03/23 05:20:19;;;;;;;20.37;16.80;;;10.50;99.90;;;;;;4897956;29;20231;-57
2023/03/23 05:22:50;;;;;;;19.23;17.23;;;10.50;99.90;;;;;;4898022;29;20230;-56
2023/03/23 05:25:24;;;;;;;18.20;16.40;;;10.50;99.90;;;;;;4880092;29;20224;-57
2023/03/23 05:28:00;;;;;;;18.13;16.13;;;10.60;99.90;;;;;;4879272;29;20292;-56
2023/03/23 05:30:46;;;;;;;18.73;16.67;;;10.60;99.90;;;;;;4879480;29;20248;-56
2023/03/23 05:33:15;;;;;;;18.27;16.47;;;10.60;99.90;;;;;;4890198;29;20648;-56
2023/03/23 05:36:13;;;;;;;19.70;15.27;;;10.60;99.90;;;;;;4873830;29;20236;-56
2023/03/23 05:38:59;;;;;;;18.07;16.17;;;10.60;99.90;;;;;;4885821;29;20230;-56
2023/03/23 05:41:41;;;;;;;20.03;16.17;;;10.50;99.90;;;;;;4878877;29;20648;-57
2023/03/23 05:44:08;;;;;;;19.43;15.77;;;10.60;99.90;;;;;;4865819;29;20245;-56
2023/03/23 05:46:47;;;;;;;17.23;15.13;;;10.60;99.90;;;;;;4863346;29;20689;-56
2023/03/23 05:49:15;;;;;;;16.27;14.50;;;10.60;99.90;;;;;;4881191;29;20227;-56
2023/03/23 05:51:43;;;;;;;16.53;14.40;;;10.50;99.90;;;;;;4881064;29;20235;-55
2023/03/23 05:54:11;;;;;;;17.60;13.77;;;10.50;99.90;;;;;;4866203;29;20740;-57
2023/03/23 05:56:40;;;;;;;15.80;14.13;;;10.50;99.90;;;;;;4866582;29;20244;-57
2023/03/23 05:59:27;;;;;;;14.87;13.23;;;10.50;99.90;;;;;;4865920;29;20285;-56
2023/03/23 06:01:57;;;;;;;15.77;14.17;;;10.50;99.90;;;;;;4888041;29;20238;-56
2023/03/23 06:04:24;;;;;;;14.53;12.93;;;10.50;99.90;;;;;;4872768;29;20245;-56
2023/03/23 06:07:12;;;;;;;15.67;13.37;;;10.50;99.90;;;;;;4891493;29;20267;-57
2023/03/23 06:09:42;;;;;;;14.97;13.37;;;10.50;99.90;;;;;;4874387;29;20235;-57
2023/03/23 06:12:31;;;;;;;14.93;12.70;;;10.50;99.90;;;;;;4871703;29;20715;-56
2023/03/23 06:15:19;;;;;;;16.70;13.17;;;10.50;99.90;;;;;;4872791;29;20676;-57
2023/03/23 06:18:08;;;;;;;13.67;12.20;;;10.60;99.90;;;;;;4874257;29;20239;-57
2023/03/23 06:20:55;;;;;;;13.83;11.90;;;10.60;99.90;;;;;;4847970;29;20321;-54
2023/03/23 06:23:30;;;;;;;15.57;11.70;;;10.70;99.90;;;;;;4875510;29;20253;-56
2023/03/23 06:26:00;;;;;;;15.33;12.13;;;10.70;99.90;;;;;;4878085;29;20233;-57
2023/03/23 06:28:29;;;;;;;12.83;11.33;;;10.70;99.90;;;;;;4893313;29;20260;-56
2023/03/23 06:31:00;;;;;;;13.37;11.43;;;10.80;99.90;;;;;;4871011;29;20771;-57
2023/03/23 06:33:27;;;;;;;14.67;10.77;;;10.90;99.90;;;;;;4889545;29;20285;-55
2023/03/23 06:36:12;;;;;;;12.87;10.97;;;10.90;99.90;;;;;;4864281;29;20228;-57
2023/03/23 06:38:47;;;;;;;13.00;10.37;;;10.90;99.90;;;;;;4865541;29;20722;-56
2023/03/23 06:41:16;;;;;;;13.37;9.50;;;11.00;99.90;;;;;;4858049;29;20243;-57
2023/03/23 06:43:46;;;;;;;12.47;10.37;;;11.00;99.90;;;;;;4884669;29;20652;-56
2023/03/23 06:46:15;;;;;;;11.73;10.17;;;11.00;99.90;;;;;;4877446;29;20716;-57
2023/03/23 06:48:42;;;;;;;11.10;9.93;;;11.10;99.90;;;;;;4872160;29;20257;-57
2023/03/23 06:51:13;;;;;;;12.47;9.57;;;11.30;99.90;;;;;;4896674;29;20234;-56
2023/03/23 06:53:42;;;;;;;11.00;9.70;;;11.40;99.90;;;;;;4861146;29;20227;-56
2023/03/23 06:56:13;;;;;;;11.20;9.50;;;11.40;99.90;;;;;;4869403;29;20238;-57
2023/03/23 06:58:42;;;;;;;11.77;8.83;;;11.40;99.90;;;;;;4869657;29;20223;-56
2023/03/23 07:01:11;;;;;;;9.87;8.87;;;11.40;99.90;;;;;;4886471;29;20231;-57
2023/03/23 07:03:46;;;;;;;10.07;8.53;;;11.30;99.90;;;;;;4877513;29;20236;-57
2023/03/23 07:06:17;;;;;;;10.20;9.17;;;11.30;99.90;;;;;;4868283;29;20267;-57
2023/03/23 07:08:50;;;;;;;10.93;8.30;;;11.30;99.90;;;;;;4873656;29;20770;-56
2023/03/23 07:11:22;;;;;;;9.50;8.57;;;11.30;99.90;;;;;;4888399;29;20238;-56
2023/03/23 07:13:50;;;;;;;9.73;8.13;;;11.20;99.90;;;;;;4884673;29;20227;-56
2023/03/23 07:16:20;;;;;;;9.83;8.83;;;11.20;99.90;;;;;;4868204;29;20232;-56
2023/03/23 07:18:47;;;;;;;11.07;8.07;;;11.20;99.90;;;;;;4871416;29;20257;-56
2023/03/23 07:21:16;;;;;;;10.33;8.47;;;11.20;99.90;;;;;;4879644;29;20225;-56
2023/03/23 07:23:43;;;;;;;9.23;7.33;;;11.10;99.90;;;;;;4888264;29;20770;-56
2023/03/23 07:26:13;;;;;;;9.97;7.67;;;11.10;99.90;;;;;;4882291;29;20223;-56
2023/03/23 07:28:47;;;;;;;8.53;7.30;;;11.10;99.90;;;;;;4872895;29;20226;-55
2023/03/23 07:31:25;;;;;;;10.87;7.97;;;11.10;99.90;;;;;;4885864;29;20226;-56
2023/03/23 07:33:53;;;;;;;11.00;7.40;;;11.10;99.90;;;;;;4895974;29;20690;-57
2023/03/23 07:36:20;;;;;;;7.47;3.97;;;11.00;99.90;;;;;;4862830;29;20232;-57
2023/03/23 07:38:48;;;;;;;3.53;1.97;;;10.80;99.90;;;;;;4871466;29;20321;-56
2023/03/23 07:41:16;;;;;;;4.17;1.73;;;10.60;99.90;;;;;;4877050;29;20230;-56
2023/03/23 07:43:45;;;;;;;3.43;1.60;;;10.50;99.90;;;;;;4887843;29;20229;-56
2023/03/23 07:46:35;;;;;;;4.60;2.20;;;10.50;99.90;;;;;;4883403;29;20222;-56
2023/03/23 07:49:11;;;;;;;4.10;2.13;;;10.50;99.90;;;;;;4893874;29;20258;-56
2023/03/23 07:51:44;;;;;;;2.57;2.23;;;10.50;99.90;;;;;;4902058;29;20230;-56
2023/03/23 07:54:14;;;;;;;4.20;2.93;;;10.50;99.90;;;;;;4880343;29;20702;-56
2023/03/23 07:56:55;;;;;;;5.00;3.73;;;10.60;99.90;;;;;;4898212;29;20245;-56
2023/03/23 07:59:26;;;;;;;5.10;3.97;;;10.60;99.90;;;;;;4878926;29;20691;-55
2023/03/23 08:01:57;;;;;;;5.47;4.53;;;10.60;99.90;;;;;;4894622;29;20229;-56
2023/03/23 08:04:36;;;;;;;8.33;4.80;;;10.70;99.90;;;;;;4914805;29;20264;-56
2023/03/23 08:07:16;;;;;;;6.07;4.47;;;10.70;99.90;;;;;;4897860;29;20238;-56
2023/03/23 08:09:52;;;;;;;6.83;4.03;;;10.70;99.90;;;;;;4894735;29;20327;-56
2023/03/23 08:12:38;;;;;;;6.03;3.83;;;10.80;99.90;;;;;;4897542;29;20728;-55
2023/03/23 08:15:24;;;;;;;6.90;4.50;;;10.80;99.90;;;;;;4900308;29;20237;-56
2023/03/23 08:18:13;;;;;;;6.87;3.50;;;10.80;99.90;;;;;;4859891;29;20396;-57
2023/03/23 08:21:20;;;;;;;5.77;3.70;;;10.80;99.90;;;;;;4869492;29;20226;-56
2023/03/23 08:24:06;;;;;;;4.90;3.07;;;10.80;99.90;;;;;;4868519;29;20239;-56
2023/03/23 08:26:53;;;;;;;7.00;2.93;;;10.80;99.90;;;;;;4875073;29;20651;-57
2023/03/23 08:29:36;;;;;;;5.17;2.97;;;10.80;99.90;;;;;;4903339;29;20239;-55
2023/03/23 08:32:16;;;;;;;5.73;3.10;;;10.80;99.90;;;;;;4883118;29;20238;-57
2023/03/23 08:34:54;;;;;;;5.40;2.70;;;10.80;99.90;;;;;;4906946;29;20257;-57
2023/03/23 08:37:52;;;;;;;6.97;3.10;;;11.00;99.90;;;;;;4877745;29;20247;-56
2023/03/23 08:40:37;;;;;;;5.07;2.90;;;11.00;99.90;;;;;;4897324;29;20234;-55
2023/03/23 08:43:23;;;;;;;5.73;2.93;;;11.00;99.90;;;;;;4882496;29;20238;-57
2023/03/23 08:46:10;;;;;;;4.80;2.97;;;11.00;99.90;;;;;;4899393;29;20578;-57
2023/03/23 08:48:57;;;;;;;5.60;3.20;;;11.10;99.90;;;;;;4891303;29;20251;-57
2023/03/23 08:51:44;;;;;;;5.83;3.23;;;11.10;99.90;;;;;;4884407;29;20348;-57
2023/03/23 08:54:32;;;;;;;7.67;3.73;;;11.00;99.90;;;;;;4897615;29;20330;-57
2023/03/23 08:57:19;;;;;;;8.33;4.10;;;11.00;99.90;;;;;;4892549;29;20702;-57
2023/03/23 09:00:15;;;;;;;9.20;3.50;;;11.10;99.90;;;;;;4852016;29;20227;-56
2023/03/23 09:03:03;;;;;;;11.20;3.90;;;11.10;99.90;;;;;;4885063;29;20234;-56
2023/03/23 09:05:50;;;;;;;6.67;3.07;;;11.20;99.90;;;;;;4875056;29;20247;-56
2023/03/23 09:08:25;;;;;;;8.43;2.97;;;11.20;99.90;;;;;;4902567;29;20223;-56
2023/03/23 09:10:52;;;;;;;10.37;3.07;;;11.30;99.90;;;;;;4888594;29;20235;-56
2023/03/23 09:13:19;;;;;;;7.23;2.43;;;11.30;99.90;;;;;;4893631;29;20236;-57
2023/03/23 09:15:46;;;;;;;13.33;3.30;;;11.40;99.90;;;;;;4890080;29;20760;-56
2023/03/23 09:18:13;;;;;;;10.50;3.07;;;11.50;99.90;;;;;;4894707;29;20596;-57
2023/03/23 09:20:41;;;;;;;8.43;2.50;;;11.70;99.90;;;;;;4897953;29;20227;-56
2023/03/23 09:23:09;;;;;;;6.83;2.00;;;12.00;99.90;;;;;;4890128;29;20823;-57
2023/03/23 09:25:37;;;;;;;9.00;2.30;;;12.70;99.90;;;;;;4888938;29;20939;-55
2023/03/23 09:28:04;;;;;;;6.80;2.20;;;13.50;99.90;;;;;;4883455;29;20818;-55
2023/03/23 09:30:33;;;;;;;9.07;2.17;;;13.90;99.90;;;;;;4893547;29;20292;-57
2023/03/23 09:33:02;;;;;;;10.23;2.40;;;13.90;99.90;;;;;;4888702;29;20700;-57
2023/03/23 09:35:31;;;;;;;7.97;2.67;;;14.10;99.90;;;;;;4892642;29;20235;-57
2023/03/23 09:38:00;;;;;;;6.47;2.20;;;14.10;99.90;;;;;;4894992;29;20228;-57
2023/03/23 09:40:33;;;;;;;7.73;2.33;;;14.00;99.90;;;;;;4893682;29;20321;-56
2023/03/23 09:43:35;;;;;;;7.33;2.17;;;14.00;99.90;;;;;;4880689;29;20831;-57
2023/03/23 09:46:16;;;;;;;7.43;2.27;;;13.90;99.90;;;;;;4856670;29;20244;-57
2023/03/23 09:48:51;;;;;;;10.37;2.33;;;13.80;99.90;;;;;;4888429;29;20239;-56
2023/03/23 09:51:29;;;;;;;9.13;2.47;;;13.60;99.90;;;;;;4890399;29;20239;-57
2023/03/23 09:54:01;;;;;;;9.63;2.10;;;13.40;99.90;;;;;;4890614;29;20729;-56
2023/03/23 09:56:32;;;;;;;7.63;2.03;;;13.20;99.90;;;;;;4889740;29;20256;-57
2023/03/23 09:59:06;;;;;;;8.87;2.43;;;13.10;99.90;;;;;;4897349;29;20228;-57
2023/03/23 10:01:37;;;;;;;6.03;2.10;;;13.00;99.90;;;;;;4896250;29;20231;-57
2023/03/23 10:04:10;;;;;;;8.37;2.43;;;13.10;99.90;;;;;;4889051;29;20262;-57
2023/03/23 10:06:38;;;;;;;9.33;2.80;;;13.10;99.90;;;;;;4890080;29;20772;-55
2023/03/23 10:09:06;;;;;;;8.83;2.57;;;13.00;99.90;;;;;;4892199;29;20316;-56
2023/03/23 10:11:46;;;;;;;9.57;2.50;;;13.00;99.90;;;;;;4892283;29;20642;-56
2023/03/23 10:14:26;;;;;;;7.93;3.03;;;13.20;99.90;;;;;;4893992;29;20629;-56
2023/03/23 10:17:04;;;;;;;9.63;2.67;;;13.30;99.90;;;;;;4892629;29;20236;-53
2023/03/23 10:19:42;;;;;;;8.47;2.93;;;13.40;99.90;;;;;;4893171;29;20240;-55
2023/03/23 10:22:11;;;;;;;10.47;2.57;;;13.50;99.90;;;;;;4893712;29;20235;-57
2023/03/23 10:24:44;;;;;;;12.27;3.90;;;13.50;99.90;;;;;;4893607;29;20704;-56
2023/03/23 10:27:25;;;;;;;10.47;2.40;;;13.40;99.90;;;;;;4892716;29;20224;-57
2023/03/23 10:30:00;;;;;;;10.73;2.57;;;13.40;99.90;;;;;;4893274;29;20231;-57
2023/03/23 10:32:41;;;;;;;13.00;3.10;;;13.40;99.90;;;;;;4892393;29;20241;-56
2023/03/23 10:35:14;;;;;;;13.33;3.33;;;13.50;99.90;;;;;;4892859;29;20319;-56
2023/03/23 10:37:45;;;;;;;12.00;3.30;;;13.60;99.90;;;;;;4891815;29;20613;-57
2023/03/23 10:40:17;;;;;;;12.07;3.30;;;13.70;99.90;;;;;;4892477;29;20319;-56
2023/03/23 10:42:44;;;;;;;11.93;2.90;;;13.60;99.90;;;;;;4893230;29;20248;-56
2023/03/23 10:45:18;;;;;;;8.80;2.83;;;13.50;99.90;;;;;;4893247;29;20233;-57
2023/03/23 10:47:52;;;;;;;16.77;3.13;;;13.50;99.90;;;;;;4891449;29;20314;-51
2023/03/23 10:50:24;;;;;;;14.20;3.03;;;13.50;99.90;;;;;;4895553;29;20241;-57
2023/03/23 10:52:54;;;;;;;14.10;3.50;;;13.60;99.90;;;;;;4892643;29;20225;-57
2023/03/23 10:55:23;;;;;;;9.23;2.67;;;13.70;99.90;;;;;;4891932;29;20296;-56
2023/03/23 10:58:02;;;;;;;10.03;3.03;;;13.70;99.90;;;;;;4891342;29;20246;-56
2023/03/23 11:00:31;;;;;;;10.93;3.23;;;13.70;99.90;;;;;;4889684;29;20303;-53
2023/03/23 11:03:02;;;;;;;17.63;3.50;;;13.70;99.90;;;;;;4891087;29;20599;-54
2023/03/23 11:05:35;;;;;;;17.17;3.77;;;13.60;99.90;;;;;;4891845;29;20300;-56
2023/03/23 11:08:03;;;;;;;17.90;3.37;;;13.70;99.90;;;;;;4890954;29;20709;-56
2023/03/23 11:10:37;;;;;;;16.30;3.20;;;13.70;99.90;;;;;;4890165;29;20230;-56
2023/03/23 11:13:09;;;;;;;15.57;3.30;;;13.70;99.90;;;;;;4891011;29;20232;-55
2023/03/23 11:15:40;;;;;;;11.70;3.00;;;13.80;99.90;;;;;;4873964;29;20339;-57
2023/03/23 11:18:14;;;;;;;13.37;3.00;;;13.90;99.90;;;;;;4893053;29;20243;-56
2023/03/23 11:20:44;;;;;;;10.60;2.80;;;14.00;99.90;;;;;;4857439;29;20250;-56
2023/03/23 11:23:21;;;;;;;16.47;3.30;;;14.10;99.90;;;;;;4890005;29;20260;-57
2023/03/23 11:25:59;;;;;;;11.60;3.20;;;14.10;99.90;;;;;;4890672;29;20244;-57
2023/03/23 11:28:33;;;;;;;11.07;2.57;;;14.10;99.90;;;;;;4892300;29;20590;-56
2023/03/23 11:31:05;;;;;;;15.33;3.30;;;14.00;99.90;;;;;;4890375;29;20240;-56
2023/03/23 11:33:38;;;;;;;13.30;3.20;;;13.90;99.90;;;;;;4874616;29;20228;-56
2023/03/23 11:36:08;;;;;;;11.53;2.57;;;14.20;99.90;;;;;;4875836;29;20228;-56
2023/03/23 11:38:36;;;;;;;12.00;3.20;;;14.20;99.90;;;;;;4891314;29;20229;-53
2023/03/23 11:41:10;;;;;;;11.20;2.90;;;14.20;99.90;;;;;;4889200;29;20248;-56
2023/03/23 11:43:41;;;;;;;10.10;2.87;;;14.00;99.90;;;;;;4889069;29;20232;-56
2023/03/23 11:46:17;;;;;;;9.43;2.60;;;13.90;99.90;;;;;;4891612;29;20716;-57
2023/03/23 11:48:52;;;;;;;10.13;2.97;;;13.80;99.90;;;;;;4878418;29;20284;-55
2023/03/23 11:51:25;;;;;;;8.33;3.20;;;13.60;99.90;;;;;;4896878;29;20599;-57
2023/03/23 11:54:01;;;;;;;11.77;3.00;;;13.50;99.90;;;;;;4896740;29;20757;-56
2023/03/23 11:56:32;;;;;;;9.37;3.17;;;13.40;99.90;;;;;;4897467;29;20600;-56
2023/03/23 11:59:00;;;;;;;9.60;3.27;;;13.30;99.90;;;;;;4898082;29;20236;-55
2023/03/23 12:01:50;;;;;;;8.87;2.80;;;13.50;99.90;;;;;;4895628;29;20706;-57
2023/03/23 12:04:41;;;;;;;8.33;3.00;;;13.60;99.90;;;;;;4894856;29;20645;-56
2023/03/23 12:07:37;;;;;;;9.63;3.27;;;13.70;99.90;;;;;;4896060;29;20300;-57
2023/03/23 12:10:19;;;;;;;9.90;3.23;;;13.70;99.90;;;;;;4895929;29;20248;-56
2023/03/23 12:12:52;;;;;;;6.80;3.00;;;13.60;99.90;;;;;;4895518;29;20233;-55
2023/03/23 12:15:26;;;;;;;10.13;3.13;;;13.60;99.90;;;;;;4896414;29;20742;-57
2023/03/23 12:18:03;;;;;;;9.30;3.20;;;13.80;99.90;;;;;;4897093;29;20244;-56
2023/03/23 12:20:43;;;;;;;9.60;3.67;;;14.00;99.90;;;;;;4897017;29;20243;-56
2023/03/23 12:23:25;;;;;;;9.73;2.87;;;14.20;99.90;;;;;;4896758;29;20251;-57
2023/03/23 12:26:28;;;;;;;7.67;2.87;;;14.20;99.90;;;;;;4879525;29;20312;-56
2023/03/23 12:29:22;;;;;;;6.60;2.90;;;14.10;99.90;;;;;;4896446;29;20600;-56
2023/03/23 12:32:00;;;;;;;9.00;3.23;;;14.00;99.90;;;;;;4896284;29;20720;-56
2023/03/23 12:34:39;;;;;;;12.47;3.50;;;14.00;99.90;;;;;;4879754;29;20231;-55
2023/03/23 12:37:23;;;;;;;8.97;3.20;;;14.00;99.90;;;;;;4896053;29;20320;-55
2023/03/23 12:40:21;;;;;;;12.67;3.80;;;14.10;99.90;;;;;;4895760;29;20253;-54
2023/03/23 12:42:58;;;;;;;9.27;3.27;;;14.20;99.90;;;;;;4895714;29;20236;-56
2023/03/23 12:45:45;;;;;;;11.07;3.80;;;14.20;99.90;;;;;;4896567;29;20232;-56
2023/03/23 12:48:16;;;;;;;11.23;3.57;;;14.10;99.90;;;;;;4896914;29;20263;-57
2023/03/23 12:50:48;;;;;;;12.23;3.90;;;14.10;99.90;;;;;;4897731;29;20249;-55
2023/03/23 12:53:24;;;;;;;10.77;3.30;;;14.20;99.90;;;;;;4895698;29;20252;-56
2023/03/23 12:56:05;;;;;;;8.37;3.30;;;14.50;99.90;;;;;;4895681;29;20649;-57
2023/03/23 12:58:40;;;;;;;9.77;3.20;;;14.60;99.90;;;;;;4894753;29;20710;-56
2023/03/23 13:01:12;;;;;;;9.67;3.90;;;14.60;99.90;;;;;;4895168;29;20268;-56
2023/03/23 13:03:44;;;;;;;10.07;3.70;;;14.60;99.90;;;;;;4895850;29;20277;-56
2023/03/23 13:06:19;;;;;;;12.03;3.37;;;14.30;99.90;;;;;;4895125;29;20232;-57
2023/03/23 13:08:50;;;;;;;9.67;3.27;;;14.30;99.90;;;;;;4895654;29;20228;-50
2023/03/23 13:11:22;;;;;;;7.70;3.00;;;14.00;99.90;;;;;;4895365;29;20217;-56